Time;durP1;ratioP1;P1;durP2;ratioP2;P2;SDS_P1;SDS_P2;PMS_P1;PMS_P2;Temp;Humidity;BMP_temperature;BMP_pressure;BME280_temperature;BME280_humidity;BME280_pressure;Samples;Min_cycle;Max_cycle;Signal;HPM_P1;HPM_P2
2022/01/20 00:01:59;;;;;;;;;;;;;;;;;;5040678;28;20270;-79
2022/01/20 00:04:34;;;;;;;;;;;;;;;;;;5057511;28;19978;-77
2022/01/20 00:09:50;;;;;;;;;;;;;;;;;;5051339;28;20262;-77
2022/01/20 00:26:15;;;;;;;;;;;;;;;;;;5028689;28;19916;-76
2022/01/20 00:28:48;;;;;;;;;;;;;;;;;;5057038;28;19985;-77
2022/01/20 00:34:11;;;;;;;;;;;;;;;;;;5057040;28;19923;-77
2022/01/20 00:39:26;;;;;;;;;;;;;;;;;;5055974;28;20046;-77
2022/01/20 00:41:51;;;;;;;;;;;;;;;;;;5055632;28;19917;-76
2022/01/20 00:44:16;;;;;;;;;;;;;;;;;;5054705;28;20238;-76
2022/01/20 00:46:42;;;;;;;;;;;;;;;;;;5052896;28;20022;-78
2022/01/20 00:49:07;;;;;;;;;;;;;;;;;;5056705;28;20004;-77
2022/01/20 00:51:35;;;;;;;;;;;;;;;;;;5056202;28;20012;-76
2022/01/20 00:54:00;;;;;;;;;;;;;;;;;;5056622;28;19913;-77
2022/01/20 00:56:25;;;;;;;;;;;;;;;;;;5056321;28;19944;-76
2022/01/20 00:58:50;;;;;;;;;;;;;;;;;;5055339;28;19913;-76
2022/01/20 01:01:16;;;;;;;;;;;;;;;;;;5049782;28;19943;-76
2022/01/20 01:03:41;;;;;;;;;;;;;;;;;;5056584;28;20011;-76
2022/01/20 01:06:33;;;;;;;;;;;;;;;;;;5055105;28;19920;-76
2022/01/20 01:08:59;;;;;;;;;;;;;;;;;;5056402;28;19913;-76
2022/01/20 01:11:25;;;;;;;;;;;;;;;;;;5038441;28;19932;-76
2022/01/20 01:13:51;;;;;;;;;;;;;;;;;;5056044;28;19916;-76
2022/01/20 01:16:18;;;;;;;;;;;;;;;;;;5056181;28;19931;-76
2022/01/20 01:21:45;;;;;;;;;;;;;;;;;;5056085;28;19928;-76
2022/01/20 01:24:11;;;;;;;;;;;;;;;;;;5055964;28;19970;-76
2022/01/20 01:26:36;;;;;;;;;;;;;;;;;;5055894;28;19916;-76
2022/01/20 01:29:07;;;;;;;;;;;;;;;;;;5054220;28;19917;-76
2022/01/20 01:31:36;;;;;;;;;;;;;;;;;;5055857;28;19925;-76
2022/01/20 01:34:07;;;;;;;;;;;;;;;;;;5055675;28;19917;-76
2022/01/20 01:36:48;;;;;;;;;;;;;;;;;;5055570;28;19946;-76
2022/01/20 01:39:13;;;;;;;;;;;;;;;;;;5055913;28;19956;-76
2022/01/20 01:41:39;;;;;;;;;;;;;;;;;;5055526;28;20286;-76
2022/01/20 01:44:07;;;;;;;;;;;;;;;;;;5049067;28;19988;-76
2022/01/20 01:46:33;;;;;;;;;;;;;;;;;;5051018;28;19930;-77
2022/01/20 01:48:58;;;;;;;;;;;;;;;;;;5054590;28;20403;-76
2022/01/20 01:51:24;;;;;;;;;;;;;;;;;;5055103;28;19928;-76
2022/01/20 01:53:49;;;;;;;;;;;;;;;;;;5054479;28;19956;-76
2022/01/20 01:56:14;;;;;;;;;;;;;;;;;;5055191;28;19928;-76
2022/01/20 01:58:40;;;;;;;;;;;;;;;;;;5053658;28;20342;-76
2022/01/20 02:01:08;;;;;;;;;;;;;;;;;;5054682;28;20234;-75
2022/01/20 02:03:42;;;;;;;;;;;;;;;;;;5054580;28;19927;-77
2022/01/20 02:19:34;;;;;;;;;;;;;;;;;;5054679;28;19923;-76
2022/01/20 02:22:02;;;;;;;;;;;;;;;;;;5070644;28;20266;-77
2022/01/20 02:24:31;;;;;;;;;;;;;;;;;;5054598;28;19913;-76
2022/01/20 02:26:58;;;;;;;;;;;;;;;;;;5054950;28;19917;-76
2022/01/20 02:29:24;;;;;;;;;;;;;;;;;;5041545;28;19913;-75
2022/01/20 02:31:56;;;;;;;;;;;;;;;;;;5053202;28;20331;-76
2022/01/20 02:34:22;;;;;;;;;;;;;;;;;;5053446;28;19916;-76
2022/01/20 02:36:48;;;;;;;;;;;;;;;;;;5053710;28;20263;-77
2022/01/20 02:40:13;;;;;;;;;;;;;;;;;;5054263;28;19913;-76
2022/01/20 02:47:14;;;;;;;;;;;;;;;;;;5053263;28;20261;-77
2022/01/20 02:49:40;;;;;;;;;;;;;;;;;;5054357;28;19924;-75
2022/01/20 02:52:06;;;;;;;;;;;;;;;;;;5053673;28;19920;-75
2022/01/20 02:54:31;;;;;;;;;;;;;;;;;;5054195;28;19948;-75
2022/01/20 02:56:56;;;;;;;;;;;;;;;;;;5053693;28;19991;-75
2022/01/20 02:59:24;;;;;;;;;;;;;;;;;;5051176;28;20000;-76
2022/01/20 03:01:49;;;;;;;;;;;;;;;;;;5053006;28;19916;-76
2022/01/20 03:04:15;;;;;;;;;;;;;;;;;;5051977;28;19975;-76
2022/01/20 03:06:41;;;;;;;;;;;;;;;;;;5054674;28;19917;-76
2022/01/20 03:09:06;;;;;;;;;;;;;;;;;;5060853;28;19916;-75
2022/01/20 03:11:34;;;;;;;;;;;;;;;;;;5059805;28;20504;-76
2022/01/20 03:13:59;;;;;;;;;;;;;;;;;;5060948;28;19924;-76
2022/01/20 03:16:24;;;;;;;;;;;;;;;;;;5059369;28;20011;-76
2022/01/20 03:18:50;;;;;;;;;;;;;;;;;;5060297;28;20304;-77
2022/01/20 03:21:15;;;;;;;;;;;;;;;;;;5060780;28;20401;-76
2022/01/20 03:23:40;;;;;;;;;;;;;;;;;;5060568;28;20289;-76
2022/01/20 03:26:05;;;;;;;;;;;;;;;;;;5060781;28;19912;-77
2022/01/20 03:28:31;;;;;;;;;;;;;;;;;;5060451;28;19923;-76
2022/01/20 03:30:56;;;;;;;;;;;;;;;;;;5060493;28;19924;-76
2022/01/20 03:33:21;;;;;;;;;;;;;;;;;;5060203;28;19948;-76
2022/01/20 03:35:47;;;;;;;;;;;;;;;;;;5060418;28;19931;-77
2022/01/20 03:38:13;;;;;;;;;;;;;;;;;;5059877;28;20405;-76
2022/01/20 03:40:38;;;;;;;;;;;;;;;;;;5060227;28;20035;-76
2022/01/20 03:43:03;;;;;;;;;;;;;;;;;;5060514;28;20323;-76
2022/01/20 03:45:28;;;;;;;;;;;;;;;;;;5060697;28;19917;-76
2022/01/20 03:48:06;;;;;;;;;;;;;;;;;;5060250;28;19968;-75
2022/01/20 03:53:18;;;;;;;;;;;;;;;;;;5060066;28;19928;-76
2022/01/20 03:55:43;;;;;;;;;;;;;;;;;;5060577;28;19921;-76
2022/01/20 03:58:08;;;;;;;;;;;;;;;;;;5076380;28;19923;-77
2022/01/20 04:00:34;;;;;;;;;;;;;;;;;;5060468;28;19916;-77
2022/01/20 04:03:01;;;;;;;;;;;;;;;;;;5060469;28;19916;-76
2022/01/20 04:05:29;;;;;;;;;;;;;;;;;;5059394;28;20004;-76
2022/01/20 04:07:54;;;;;;;;;;;;;;;;;;5060568;28;19913;-76
2022/01/20 04:10:19;;;;;;;;;;;;;;;;;;5060157;28;19916;-76
2022/01/20 04:12:45;;;;;;;;;;;;;;;;;;5060578;28;20258;-76
2022/01/20 04:15:10;;;;;;;;;;;;;;;;;;5059398;28;19923;-77
2022/01/20 04:17:40;;;;;;;;;;;;;;;;;;5057431;28;19940;-76
2022/01/20 04:20:06;;;;;;;;;;;;;;;;;;5062554;28;20361;-76
2022/01/20 04:22:31;;;;;;;;;;;;;;;;;;5056164;28;19913;-77
2022/01/20 04:24:57;;;;;;;;;;;;;;;;;;5057031;28;20011;-77
2022/01/20 04:27:22;;;;;;;;;;;;;;;;;;5056979;28;20270;-77
2022/01/20 04:29:47;;;;;;;;;;;;;;;;;;5056626;28;19916;-77
2022/01/20 04:32:12;;;;;;;;;;;;;;;;;;5056877;28;19927;-77
2022/01/20 04:34:40;;;;;;;;;;;;;;;;;;5050947;28;19921;-77
2022/01/20 04:37:08;;;;;;;;;;;;;;;;;;5068003;28;19964;-77
2022/01/20 04:39:37;;;;;;;;;;;;;;;;;;5045470;28;20338;-77
2022/01/20 04:42:03;;;;;;;;;;;;;;;;;;5056637;28;19939;-76
2022/01/20 04:47:40;;;;;;;;;;;;;;;;;;5044397;28;20286;-76
2022/01/20 04:58:20;;;;;;;;;;;;;;;;;;5057258;28;19978;-78
2022/01/20 05:00:45;;;;;;;;;;;;;;;;;;5055367;28;19920;-77
2022/01/20 05:03:10;;;;;;;;;;;;;;;;;;5071600;28;20342;-77
2022/01/20 05:05:35;;;;;;;;;;;;;;;;;;5054406;28;19916;-78
2022/01/20 05:08:01;;;;;;;;;;;;;;;;;;5055528;28;19996;-78
2022/01/20 05:10:30;;;;;;;;;;;;;;;;;;5056113;28;19925;-77
2022/01/20 05:15:20;;;;;;;;;;;;;;;;;;5055122;28;20353;-80
2022/01/20 05:17:46;;;;;;;;;;;;;;;;;;5055725;28;20354;-80
2022/01/20 05:20:11;;;;;;;;;;;;;;;;;;5055028;28;20330;-80
2022/01/20 05:22:36;;;;;;;;;;;;;;;;;;5056057;28;19924;-78
2022/01/20 05:25:04;;;;;;;;;;;;;;;;;;5056069;28;19916;-79
2022/01/20 05:27:30;;;;;;;;;;;;;;;;;;5055881;28;19920;-82
2022/01/20 05:29:55;;;;;;;;;;;;;;;;;;5055003;28;19928;-81
2022/01/20 05:32:21;;;;;;;;;;;;;;;;;;5055868;28;19931;-81
2022/01/20 05:34:46;;;;;;;;;;;;;;;;;;5055627;28;19921;-81
2022/01/20 05:37:11;;;;;;;;;;;;;;;;;;5055919;28;19948;-80
2022/01/20 05:39:36;;;;;;;;;;;;;;;;;;5071161;28;19921;-81
2022/01/20 05:42:04;;;;;;;;;;;;;;;;;;5054495;28;19925;-82
2022/01/20 05:44:30;;;;;;;;;;;;;;;;;;5056053;28;19923;-79
2022/01/20 05:46:55;;;;;;;;;;;;;;;;;;5055648;28;19917;-80
2022/01/20 05:49:23;;;;;;;;;;;;;;;;;;5055539;28;20003;-81
2022/01/20 05:51:50;;;;;;;;;;;;;;;;;;5055479;28;19920;-81
2022/01/20 05:54:20;;;;;;;;;;;;;;;;;;5035105;28;19913;-82
2022/01/20 05:56:45;;;;;;;;;;;;;;;;;;5035670;28;19961;-80
2022/01/20 05:59:11;;;;;;;;;;;;;;;;;;5055599;28;20380;-80
2022/01/20 06:01:37;;;;;;;;;;;;;;;;;;5054577;28;19935;-80
2022/01/20 06:04:05;;;;;;;;;;;;;;;;;;5054137;28;19917;-79
2022/01/20 06:06:30;;;;;;;;;;;;;;;;;;5055479;28;20273;-78
2022/01/20 06:08:56;;;;;;;;;;;;;;;;;;5054306;28;19913;-77
2022/01/20 06:11:21;;;;;;;;;;;;;;;;;;5053802;28;19969;-77
2022/01/20 06:13:48;;;;;;;;;;;;;;;;;;5054133;28;19921;-78
2022/01/20 06:16:14;;;;;;;;;;;;;;;;;;5055195;28;19917;-78
2022/01/20 06:18:41;;;;;;;;;;;;;;;;;;5054202;28;19916;-79
2022/01/20 06:21:06;;;;;;;;;;;;;;;;;;5054814;28;19917;-77
2022/01/20 06:23:32;;;;;;;;;;;;;;;;;;5055192;28;20404;-78
2022/01/20 06:25:57;;;;;;;;;;;;;;;;;;5055061;28;20334;-77
2022/01/20 06:28:23;;;;;;;;;;;;;;;;;;5055251;28;19947;-77
2022/01/20 06:30:48;;;;;;;;;;;;;;;;;;5053795;28;19974;-78
2022/01/20 06:33:13;;;;;;;;;;;;;;;;;;5055370;28;19982;-78
2022/01/20 06:35:41;;;;;;;;;;;;;;;;;;5063039;28;19927;-77
2022/01/20 06:38:06;;;;;;;;;;;;;;;;;;5055098;28;19917;-78
2022/01/20 06:40:34;;;;;;;;;;;;;;;;;;5055094;28;19928;-78
2022/01/20 06:43:00;;;;;;;;;;;;;;;;;;5055427;28;19917;-78
2022/01/20 06:45:25;;;;;;;;;;;;;;;;;;5059460;28;20368;-78
2022/01/20 06:47:50;;;;;;;;;;;;;;;;;;5053841;28;19928;-78
2022/01/20 06:50:16;;;;;;;;;;;;;;;;;;5053251;28;19913;-78
2022/01/20 06:52:41;;;;;;;;;;;;;;;;;;5049576;28;19921;-78
2022/01/20 06:55:07;;;;;;;;;;;;;;;;;;5050862;28;19931;-78
2022/01/20 06:57:36;;;;;;;;;;;;;;;;;;5052995;28;19923;-78
2022/01/20 07:00:03;;;;;;;;;;;;;;;;;;5038196;28;19917;-78
2022/01/20 07:02:28;;;;;;;;;;;;;;;;;;5053377;28;19963;-80
2022/01/20 07:04:53;;;;;;;;;;;;;;;;;;5048866;28;19920;-80
2022/01/20 07:07:19;;;;;;;;;;;;;;;;;;5054626;28;20384;-80
2022/01/20 07:09:44;;;;;;;;;;;;;;;;;;5051534;28;20060;-79
2022/01/20 07:12:10;;;;;;;;;;;;;;;;;;5051455;28;20380;-79
2022/01/20 07:14:35;;;;;;;;;;;;;;;;;;5077712;28;19927;-78
2022/01/20 07:17:01;;;;;;;;;;;;;;;;;;5053270;28;19916;-79
2022/01/20 07:19:26;;;;;;;;;;;;;;;;;;5051393;28;19917;-79
2022/01/20 07:21:51;;;;;;;;;;;;;;;;;;5053962;28;19928;-79
2022/01/20 07:24:16;;;;;;;;;;;;;;;;;;5054590;28;19920;-79
2022/01/20 07:26:44;;;;;;;;;;;;;;;;;;5054572;28;20054;-78
2022/01/20 07:29:09;;;;;;;;;;;;;;;;;;5053579;28;19920;-78
2022/01/20 07:31:35;;;;;;;;;;;;;;;;;;5053468;28;19928;-78
2022/01/20 07:34:00;;;;;;;;;;;;;;;;;;5052045;28;20286;-78
2022/01/20 07:36:25;;;;;;;;;;;;;;;;;;5051807;28;20373;-77
2022/01/20 07:38:51;;;;;;;;;;;;;;;;;;5051450;28;19974;-77
2022/01/20 07:41:16;;;;;;;;;;;;;;;;;;5053282;28;19924;-78
2022/01/20 07:43:41;;;;;;;;;;;;;;;;;;5052106;28;19934;-77
2022/01/20 07:46:09;;;;;;;;;;;;;;;;;;5069459;28;19928;-77
2022/01/20 07:48:34;;;;;;;;;;;;;;;;;;5053946;28;19944;-78
2022/01/20 07:51:00;;;;;;;;;;;;;;;;;;5067047;28;19975;-77
2022/01/20 07:53:28;;;;;;;;;;;;;;;;;;5055967;28;19913;-76
2022/01/20 07:55:53;;;;;;;;;;;;;;;;;;5067565;28;19916;-79
2022/01/20 07:58:19;;;;;;;;;;;;;;;;;;5056815;28;20285;-78
2022/01/20 08:00:46;;;;;;;;;;;;;;;;;;5056990;28;19920;-77
2022/01/20 08:03:12;;;;;;;;;;;;;;;;;;5057568;28;20330;-77
2022/01/20 08:05:37;;;;;;;;;;;;;;;;;;5053865;28;19928;-77
2022/01/20 08:08:02;;;;;;;;;;;;;;;;;;5057331;28;19927;-78
2022/01/20 08:10:28;;;;;;;;;;;;;;;;;;5057646;28;19916;-78
2022/01/20 08:12:53;;;;;;;;;;;;;;;;;;5057022;28;19928;-77
2022/01/20 08:15:18;;;;;;;;;;;;;;;;;;5057647;28;19938;-78
2022/01/20 08:17:44;;;;;;;;;;;;;;;;;;5056102;28;19935;-78
2022/01/20 08:20:09;;;;;;;;;;;;;;;;;;5062272;28;19999;-77
2022/01/20 08:22:37;;;;;;;;;;;;;;;;;;5056349;28;20220;-78
2022/01/20 08:25:07;;;;;;;;;;;;;;;;;;5055699;28;19917;-78
2022/01/20 08:27:33;;;;;;;;;;;;;;;;;;5055670;28;20387;-78
2022/01/20 08:29:58;;;;;;;;;;;;;;;;;;5054694;28;19917;-79
2022/01/20 08:32:23;;;;;;;;;;;;;;;;;;5053961;28;19928;-78
2022/01/20 08:34:48;;;;;;;;;;;;;;;;;;5057003;28;20357;-78
2022/01/20 08:37:14;;;;;;;;;;;;;;;;;;5056519;28;19932;-78
2022/01/20 08:39:45;;;;;;;;;;;;;;;;;;5055612;28;20408;-77
2022/01/20 08:42:10;;;;;;;;;;;;;;;;;;5056370;28;19917;-78
2022/01/20 08:44:36;;;;;;;;;;;;;;;;;;5055109;28;19917;-76
2022/01/20 08:47:02;;;;;;;;;;;;;;;;;;5056705;28;20391;-78
2022/01/20 08:49:28;;;;;;;;;;;;;;;;;;5039372;28;19917;-77
2022/01/20 08:51:53;;;;;;;;;;;;;;;;;;5055536;28;19931;-77
2022/01/20 08:54:19;;;;;;;;;;;;;;;;;;5055282;28;19928;-78
2022/01/20 08:56:44;;;;;;;;;;;;;;;;;;5056261;28;19920;-78
2022/01/20 08:59:11;;;;;;;;;;;;;;;;;;5052888;28;20000;-78
2022/01/20 09:01:36;;;;;;;;;;;;;;;;;;5056291;28;20341;-78
2022/01/20 09:04:02;;;;;;;;;;;;;;;;;;5055636;28;19920;-78
2022/01/20 09:06:27;;;;;;;;;;;;;;;;;;5051670;28;19924;-77
2022/01/20 09:08:55;;;;;;;;;;;;;;;;;;5053214;28;20520;-78
2022/01/20 09:11:23;;;;;;;;;;;;;;;;;;5053600;28;19925;-78
2022/01/20 09:16:35;;;;;;;;;;;;;;;;;;5048912;28;19927;-78
2022/01/20 09:19:01;;;;;;;;;;;;;;;;;;5044478;28;19960;-79
2022/01/20 09:21:28;;;;;;;;;;;;;;;;;;5055147;28;19960;-77
2022/01/20 09:24:02;;;;;;;;;;;;;;;;;;5046019;28;20258;-79
2022/01/20 09:26:28;;;;;;;;;;;;;;;;;;5076244;28;20234;-79
2022/01/20 09:29:27;;;;;;;;;;;;;;;;;;5053639;28;19994;-79
2022/01/20 09:32:21;;;;;;;;;;;;;;;;;;5043127;28;19921;-79
2022/01/20 09:34:49;;;;;;;;;;;;;;;;;;5054746;28;19978;-76
2022/01/20 09:37:24;;;;;;;;;;;;;;;;;;5054274;28;19913;-79
2022/01/20 09:42:49;;;;;;;;;;;;;;;;;;5007408;28;20144;-78
2022/01/20 09:45:15;;;;;;;;;;;;;;;;;;4987069;28;19926;-78
2022/01/20 09:47:42;;;;;;;;;;;;;;;;;;4978814;28;19952;-78
2022/01/20 09:50:09;;;;;;;;;;;;;;;;;;4993582;28;19922;-78
2022/01/20 09:52:37;;;;;;;;;;;;;;;;;;4994008;28;19983;-78
2022/01/20 09:55:05;;;;;;;;;;;;;;;;;;4993855;28;19944;-79
2022/01/20 09:57:30;;;;;;;;;;;;;;;;;;4994370;28;19925;-78
2022/01/20 10:00:00;;;;;;;;;;;;;;;;;;4977655;28;19925;-78
2022/01/20 10:02:25;;;;;;;;;;;;;;;;;;4994522;28;20506;-79
2022/01/20 10:04:51;;;;;;;;;;;;;;;;;;4993594;28;19924;-78
2022/01/20 10:07:17;;;;;;;;;;;;;;;;;;4993261;28;19918;-77
2022/01/20 10:09:45;;;;;;;;;;;;;;;;;;4977161;28;20044;-77
2022/01/20 10:12:11;;;;;;;;;;;;;;;;;;4992660;28;20359;-77
2022/01/20 10:14:43;;;;;;;;;;;;;;;;;;4993557;28;19918;-78
2022/01/20 10:17:24;;;;;;;;;;;;;;;;;;4992697;28;19918;-76
2022/01/20 10:19:55;;;;;;;;;;;;;;;;;;5014413;28;20055;-78
2022/01/20 10:22:24;;;;;;;;;;;;;;;;;;5040709;28;19924;-78
2022/01/20 10:25:04;;;;;;;;;;;;;;;;;;5052313;28;19916;-78
2022/01/20 10:27:33;;;;;;;;;;;;;;;;;;5053616;28;20237;-78
2022/01/20 10:30:03;;;;;;;;;;;;;;;;;;5046878;28;20338;-79
2022/01/20 10:32:38;;;;;;;;;;;;;;;;;;5051815;28;19952;-78
2022/01/20 10:35:04;;;;;;;;;;;;;;;;;;5050826;28;19959;-78
2022/01/20 10:37:30;;;;;;;;;;;;;;;;;;5081111;28;19956;-78
2022/01/20 10:40:03;;;;;;;;;;;;;;;;;;5044322;28;19963;-78
2022/01/20 10:42:29;;;;;;;;;;;;;;;;;;5050671;28;19916;-79
2022/01/20 10:44:57;;;;;;;;;;;;;;;;;;5052353;28;20352;-80
2022/01/20 10:47:25;;;;;;;;;;;;;;;;;;5048100;28;20365;-80
2022/01/20 10:49:50;;;;;;;;;;;;;;;;;;5044500;28;20380;-79
2022/01/20 10:52:32;;;;;;;;;;;;;;;;;;5071774;28;19953;-80
2022/01/20 10:57:43;;;;;;;;;;;;;;;;;;5041975;28;19917;-81
2022/01/20 11:00:11;;;;;;;;;;;;;;;;;;5035253;28;19920;-80
2022/01/20 11:02:37;;;;;;;;;;;;;;;;;;5058005;28;19927;-81
2022/01/20 11:05:03;;;;;;;;;;;;;;;;;;5067263;28;20000;-80
2022/01/20 11:07:32;;;;;;;;;;;;;;;;;;5035177;28;19917;-79
2022/01/20 11:10:03;;;;;;;;;;;;;;;;;;5051421;28;19931;-80
2022/01/20 11:12:29;;;;;;;;;;;;;;;;;;5053224;28;19920;-80
2022/01/20 11:14:55;;;;;;;;;;;;;;;;;;5049237;28;19974;-80
2022/01/20 11:17:23;;;;;;;;;;;;;;;;;;5051473;28;19916;-80
2022/01/20 11:19:49;;;;;;;;;;;;;;;;;;5039747;28;19978;-78
2022/01/20 11:22:15;;;;;;;;;;;;;;;;;;5043271;28;19955;-78
2022/01/20 11:24:41;;;;;;;;;;;;;;;;;;5053146;28;19950;-77
2022/01/20 11:27:12;;;;;;;;;;;;;;;;;;5053017;28;19923;-77
2022/01/20 11:29:43;;;;;;;;;;;;;;;;;;5056380;28;19921;-78
2022/01/20 11:32:38;;;;;;;;;;;;;;;;;;5057404;28;19931;-78
2022/01/20 11:35:19;;;;;;;;;;;;;;;;;;5044485;28;19917;-78
2022/01/20 11:37:56;;;;;;;;;;;;;;;;;;5056175;28;19927;-78
2022/01/20 11:40:23;;;;;;;;;;;;;;;;;;5073083;28;20231;-77
2022/01/20 11:42:56;;;;;;;;;;;;;;;;;;5065256;28;19913;-78
2022/01/20 11:49:06;;;;;;;;;;;;;;;;;;5037905;28;20000;-77
2022/01/20 11:51:45;;;;;;;;;;;;;;;;;;5042508;28;20320;-77
2022/01/20 11:54:30;;;;;;;;;;;;;;;;;;5056744;28;19928;-77
2022/01/20 11:57:17;;;;;;;;;;;;;;;;;;5057068;28;20461;-77
2022/01/20 11:59:57;;;;;;;;;;;;;;;;;;5057582;28;19917;-77
2022/01/20 12:02:47;;;;;;;;;;;;;;;;;;5065575;28;19924;-77
2022/01/20 12:05:30;;;;;;;;;;;;;;;;;;5043088;28;19992;-76
2022/01/20 12:08:10;;;;;;;;;;;;;;;;;;5053289;28;20318;-75
2022/01/20 12:10:35;;;;;;;;;;;;;;;;;;5047223;28;19917;-77
2022/01/20 12:13:04;;;;;;;;;;;;;;;;;;5053181;28;20329;-77
2022/01/20 12:15:31;;;;;;;;;;;;;;;;;;5039847;28;20305;-77
2022/01/20 12:17:58;;;;;;;;;;;;;;;;;;5046880;28;19921;-77
2022/01/20 12:20:23;;;;;;;;;;;;;;;;;;5071816;28;20354;-79
2022/01/20 12:22:52;;;;;;;;;;;;;;;;;;5055509;28;19920;-79
2022/01/20 12:25:19;;;;;;;;;;;;;;;;;;5050675;28;19971;-78
2022/01/20 12:30:48;;;;;;;;;;;;;;;;;;5046724;28;19997;-79
2022/01/20 12:33:15;;;;;;;;;;;;;;;;;;5040909;28;19921;-78
2022/01/20 12:36:04;;;;;;;;;;;;;;;;;;5062910;28;20016;-78
2022/01/20 12:38:36;;;;;;;;;;;;;;;;;;5038562;28;19924;-78
2022/01/20 12:41:02;;;;;;;;;;;;;;;;;;5054581;28;20257;-77
2022/01/20 12:43:37;;;;;;;;;;;;;;;;;;5055926;28;19995;-77
2022/01/20 12:46:02;;;;;;;;;;;;;;;;;;5048402;28;19916;-77
2022/01/20 12:48:27;;;;;;;;;;;;;;;;;;5053712;28;20605;-76
2022/01/20 12:51:04;;;;;;;;;;;;;;;;;;5055834;28;19971;-77
2022/01/20 12:53:40;;;;;;;;;;;;;;;;;;5053068;28;19917;-78
2022/01/20 12:56:06;;;;;;;;;;;;;;;;;;5055497;28;19924;-77
2022/01/20 13:01:46;;;;;;;;;;;;;;;;;;5040625;28;19927;-79
2022/01/20 13:04:16;;;;;;;;;;;;;;;;;;5080721;28;19928;-80
2022/01/20 13:06:45;;;;;;;;;;;;;;;;;;5086874;28;19917;-80
2022/01/20 13:09:31;;;;;;;;;;;;;;;;;;5053550;28;19932;-80
2022/01/20 13:12:11;;;;;;;;;;;;;;;;;;5058127;28;19921;-81
2022/01/20 13:14:40;;;;;;;;;;;;;;;;;;5054624;28;19917;-79
2022/01/20 13:17:06;;;;;;;;;;;;;;;;;;5052838;28;19924;-78
2022/01/20 13:19:39;;;;;;;;;;;;;;;;;;5053498;28;19917;-80
2022/01/20 13:22:11;;;;;;;;;;;;;;;;;;5054158;28;19927;-81
2022/01/20 13:24:47;;;;;;;;;;;;;;;;;;5079032;28;19924;-80
2022/01/20 13:27:40;;;;;;;;;;;;;;;;;;5057297;28;19917;-79
2022/01/20 13:30:23;;;;;;;;;;;;;;;;;;5049968;28;19928;-80
2022/01/20 13:32:49;;;;;;;;;;;;;;;;;;5054981;28;19920;-80
2022/01/20 13:35:17;;;;;;;;;;;;;;;;;;5055526;28;19974;-80
2022/01/20 13:37:45;;;;;;;;;;;;;;;;;;5055334;28;19916;-78
2022/01/20 13:40:19;;;;;;;;;;;;;;;;;;5055635;28;20276;-80
2022/01/20 13:45:00;;;;;;;;;;;;;;;;;;5047385;28;19916;-80
2022/01/20 13:45:36;;;;;;;;;;;;;;;;;;5053022;28;19925;-80
2022/01/20 13:48:01;;;;;;;;;;;;;;;;;;5053516;28;19916;-79
2022/01/20 13:50:28;;;;;;;;;;;;;;;;;;5055579;28;20082;-78
2022/01/20 13:52:56;;;;;;;;;;;;;;;;;;5051981;28;19939;-80
2022/01/20 13:55:27;;;;;;;;;;;;;;;;;;5053576;28;19931;-78
2022/01/20 13:58:02;;;;;;;;;;;;;;;;;;5048336;28;19916;-80
2022/01/20 14:00:31;;;;;;;;;;;;;;;;;;5047711;28;20007;-78
2022/01/20 14:03:01;;;;;;;;;;;;;;;;;;5076332;28;19916;-82
2022/01/20 14:05:27;;;;;;;;;;;;;;;;;;5054830;28;19931;-79
2022/01/20 14:07:53;;;;;;;;;;;;;;;;;;5047227;28;19924;-79
2022/01/20 14:10:18;;;;;;;;;;;;;;;;;;5054747;28;19920;-79
2022/01/20 14:12:43;;;;;;;;;;;;;;;;;;5046628;28;19921;-77
2022/01/20 14:15:09;;;;;;;;;;;;;;;;;;5053263;28;19916;-78
2022/01/20 14:17:38;;;;;;;;;;;;;;;;;;5068092;28;19917;-79
2022/01/20 14:20:07;;;;;;;;;;;;;;;;;;5054340;28;19916;-79
2022/01/20 14:22:35;;;;;;;;;;;;;;;;;;5053342;28;19926;-78
2022/01/20 14:25:07;;;;;;;;;;;;;;;;;;5052729;28;19920;-80
2022/01/20 14:27:32;;;;;;;;;;;;;;;;;;5051009;28;20028;-82
2022/01/20 14:29:57;;;;;;;;;;;;;;;;;;5053441;28;20019;-79
2022/01/20 14:32:26;;;;;;;;;;;;;;;;;;5052907;28;19921;-80
2022/01/20 14:34:51;;;;;;;;;;;;;;;;;;5053616;28;20392;-84
2022/01/20 14:37:16;;;;;;;;;;;;;;;;;;5053783;28;20115;-80
2022/01/20 14:39:42;;;;;;;;;;;;;;;;;;5053624;28;19960;-79
2022/01/20 14:42:10;;;;;;;;;;;;;;;;;;5085108;28;19920;-78
2022/01/20 14:44:36;;;;;;;;;;;;;;;;;;5054228;28;19967;-76
2022/01/20 14:47:04;;;;;;;;;;;;;;;;;;5051035;28;19927;-78
2022/01/20 14:49:29;;;;;;;;;;;;;;;;;;5071380;28;19971;-76
2022/01/20 14:51:54;;;;;;;;;;;;;;;;;;5050861;28;19956;-77
2022/01/20 14:54:20;;;;;;;;;;;;;;;;;;5050260;28;19917;-82
2022/01/20 14:56:45;;;;;;;;;;;;;;;;;;5048372;28;19924;-77
2022/01/20 14:59:13;;;;;;;;;;;;;;;;;;5052468;28;20338;-78
2022/01/20 15:01:41;;;;;;;;;;;;;;;;;;5052265;28;19921;-78
2022/01/20 15:04:06;;;;;;;;;;;;;;;;;;5050578;28;19951;-78
2022/01/20 15:06:31;;;;;;;;;;;;;;;;;;5051431;28;20287;-77
2022/01/20 15:08:57;;;;;;;;;;;;;;;;;;5053163;28;19916;-76
2022/01/20 15:11:22;;;;;;;;;;;;;;;;;;5084810;28;20423;-76
2022/01/20 15:13:48;;;;;;;;;;;;;;;;;;5053416;28;19913;-80
2022/01/20 15:16:13;;;;;;;;;;;;;;;;;;5052608;28;20276;-77
2022/01/20 15:18:40;;;;;;;;;;;;;;;;;;5052828;28;19916;-77
2022/01/20 15:21:05;;;;;;;;;;;;;;;;;;5048225;28;19952;-79
2022/01/20 15:23:30;;;;;;;;;;;;;;;;;;5051680;28;20328;-79
2022/01/20 15:25:56;;;;;;;;;;;;;;;;;;5052850;28;20027;-80
2022/01/20 15:28:23;;;;;;;;;;;;;;;;;;5053096;28;19917;-80
2022/01/20 15:31:41;;;;;;;;;;;;;;;;;;5052960;28;19946;-79
2022/01/20 15:34:01;;;;;;;;;;;;;;;;;;5050425;28;19994;-79
2022/01/20 15:36:33;;;;;;;;;;;;;;;;;;5045506;28;19936;-79
2022/01/20 15:38:59;;;;;;;;;;;;;;;;;;5050044;28;19929;-85
2022/01/20 15:41:25;;;;;;;;;;;;;;;;;;5053143;28;19913;-87
2022/01/20 15:43:50;;;;;;;;;;;;;;;;;;5036192;28;20409;-87
2022/01/20 15:46:16;;;;;;;;;;;;;;;;;;5053612;28;19923;-87
2022/01/20 15:48:41;;;;;;;;;;;;;;;;;;5053131;28;19916;-84
2022/01/20 15:51:06;;;;;;;;;;;;;;;;;;5079143;28;19921;-83
2022/01/20 15:53:33;;;;;;;;;;;;;;;;;;5053339;28;19913;-86
2022/01/20 15:56:01;;;;;;;;;;;;;;;;;;5048070;28;19918;-85
2022/01/20 15:58:28;;;;;;;;;;;;;;;;;;5039839;28;19954;-85
2022/01/20 16:01:06;;;;;;;;;;;;;;;;;;5051871;28;19916;-84
2022/01/20 16:03:31;;;;;;;;;;;;;;;;;;5052799;28;19917;-80
2022/01/20 16:05:56;;;;;;;;;;;;;;;;;;5052512;28;19935;-87
2022/01/20 16:08:21;;;;;;;;;;;;;;;;;;5051242;28;19916;-81
2022/01/20 16:10:50;;;;;;;;;;;;;;;;;;5059100;28;19916;-90
2022/01/20 16:13:15;;;;;;;;;;;;;;;;;;5053655;28;20004;-86
2022/01/20 16:15:41;;;;;;;;;;;;;;;;;;5056737;28;19944;-87
2022/01/20 16:18:17;;;;;;;;;;;;;;;;;;5080413;28;20269;-87
2022/01/20 16:20:45;;;;;;;;;;;;;;;;;;5035353;28;19917;-88
2022/01/20 16:23:11;;;;;;;;;;;;;;;;;;5043854;28;19924;-86
2022/01/20 16:25:36;;;;;;;;;;;;;;;;;;5056640;28;19946;-87
2022/01/20 16:28:01;;;;;;;;;;;;;;;;;;5056617;28;19913;-86
2022/01/20 16:30:29;;;;;;;;;;;;;;;;;;5054968;28;19927;-87
2022/01/20 16:32:54;;;;;;;;;;;;;;;;;;5071365;28;19917;-82
2022/01/20 16:35:23;;;;;;;;;;;;;;;;;;5055426;28;20016;-86
2022/01/20 16:37:49;;;;;;;;;;;;;;;;;;5055592;28;19970;-87
2022/01/20 16:40:14;;;;;;;;;;;;;;;;;;5056159;28;19917;-89
2022/01/20 16:42:40;;;;;;;;;;;;;;;;;;5056288;28;19925;-85
2022/01/20 16:45:05;;;;;;;;;;;;;;;;;;5054357;28;20315;-84
2022/01/20 16:47:31;;;;;;;;;;;;;;;;;;5055410;28;19917;-86
2022/01/20 16:49:56;;;;;;;;;;;;;;;;;;5054541;28;19999;-86
2022/01/20 16:52:21;;;;;;;;;;;;;;;;;;5055222;28;19926;-87
2022/01/20 16:54:49;;;;;;;;;;;;;;;;;;5054408;28;19916;-86
2022/01/20 16:57:14;;;;;;;;;;;;;;;;;;5056532;28;19920;-85
2022/01/20 17:00:10;;;;;;;;;;;;;;;;;;5058737;28;19940;-81
2022/01/20 17:03:18;;;;;;;;;;;;;;;;;;5068823;28;19974;-83
2022/01/20 17:05:24;;;;;;;;;;;;;;;;;;5052935;28;19988;-81
2022/01/20 17:07:55;;;;;;;;;;;;;;;;;;5060233;28;19964;-80
2022/01/20 17:10:21;;;;;;;;;;;;;;;;;;5055546;28;19912;-85
2022/01/20 17:12:46;;;;;;;;;;;;;;;;;;5045909;28;19936;-84
2022/01/20 17:15:11;;;;;;;;;;;;;;;;;;5038661;28;19913;-87
2022/01/20 17:17:36;;;;;;;;;;;;;;;;;;5059321;28;20262;-84
2022/01/20 17:20:02;;;;;;;;;;;;;;;;;;5059693;28;19981;-83
2022/01/20 17:22:28;;;;;;;;;;;;;;;;;;5047236;28;19931;-82
2022/01/20 17:24:55;;;;;;;;;;;;;;;;;;5044678;28;19936;-88
2022/01/20 17:27:20;;;;;;;;;;;;;;;;;;5040680;28;19924;-80
2022/01/20 17:29:53;;;;;;;;;;;;;;;;;;5056722;28;20003;-80
2022/01/20 17:32:20;;;;;;;;;;;;;;;;;;5043799;28;19921;-77
2022/01/20 17:34:50;;;;;;;;;;;;;;;;;;5061684;28;19938;-78
2022/01/20 17:37:20;;;;;;;;;;;;;;;;;;5056645;28;19916;-77
2022/01/20 17:39:46;;;;;;;;;;;;;;;;;;5054249;28;19917;-79
2022/01/20 17:42:11;;;;;;;;;;;;;;;;;;5058846;28;20003;-82
2022/01/20 17:44:37;;;;;;;;;;;;;;;;;;5063728;28;19928;-81
2022/01/20 17:47:02;;;;;;;;;;;;;;;;;;5064801;28;19917;-82
2022/01/20 17:49:31;;;;;;;;;;;;;;;;;;5064102;28;20380;-79
2022/01/20 17:51:56;;;;;;;;;;;;;;;;;;5054763;28;19920;-79
2022/01/20 17:54:39;;;;;;;;;;;;;;;;;;5058015;28;19978;-78
2022/01/20 17:57:19;;;;;;;;;;;;;;;;;;5056400;28;19936;-80
2022/01/20 17:59:45;;;;;;;;;;;;;;;;;;5065313;28;19920;-81
2022/01/20 18:02:11;;;;;;;;;;;;;;;;;;5041166;28;19977;-77
2022/01/20 18:04:41;;;;;;;;;;;;;;;;;;5032923;28;20424;-79
2022/01/20 18:07:19;;;;;;;;;;;;;;;;;;5062020;28;19917;-82
2022/01/20 18:09:49;;;;;;;;;;;;;;;;;;5060760;28;19927;-79
2022/01/20 18:12:14;;;;;;;;;;;;;;;;;;5054052;28;19921;-80